createdAt,value
2022-07-26T00:01:56.821Z,73.87
2022-07-26T00:04:23.902Z,74.35
2022-07-26T00:06:50.843Z,73.88
2022-07-26T00:09:17.787Z,73.77
2022-07-26T00:11:44.836Z,74.26
2022-07-26T00:14:11.909Z,73.93
2022-07-26T00:16:39.325Z,74.04
2022-07-26T00:19:09.940Z,74.22
2022-07-26T00:21:40.589Z,74.08
2022-07-26T00:24:08.961Z,74.52
2022-07-26T00:26:36.439Z,74.47
2022-07-26T00:29:06.204Z,74.76
2022-07-26T00:31:33.566Z,74.63
2022-07-26T00:34:00.697Z,74.54
2022-07-26T00:36:28.966Z,74.97
2022-07-26T00:38:55.984Z,74.93
2022-07-26T00:41:22.884Z,75.30
2022-07-26T00:43:57.548Z,75.37
2022-07-26T00:46:25.082Z,75.30
2022-07-26T00:48:52.169Z,75.70
2022-07-26T00:51:20.950Z,75.75
2022-07-26T00:53:48.574Z,75.26
2022-07-26T00:56:16.408Z,75.53
2022-07-26T00:58:44.408Z,75.52
2022-07-26T01:01:11.756Z,75.63
2022-07-26T01:03:39.586Z,75.79
2022-07-26T01:06:07.010Z,75.76
2022-07-26T01:08:34.004Z,75.78
2022-07-26T01:11:01.059Z,75.92
2022-07-26T01:13:31.868Z,75.92
2022-07-26T01:16:01.756Z,75.75
2022-07-26T01:18:28.758Z,76.01
2022-07-26T01:20:57.875Z,76.02
2022-07-26T01:23:24.803Z,76.43
2022-07-26T01:25:51.727Z,76.63
2022-07-26T01:28:20.127Z,76.70
2022-07-26T01:30:49.150Z,76.76
2022-07-26T01:33:16.285Z,76.96
2022-07-26T01:35:43.267Z,76.98
2022-07-26T01:38:10.253Z,76.86
2022-07-26T01:40:37.157Z,76.92
2022-07-26T01:43:04.137Z,77.27
2022-07-26T01:45:31.842Z,77.25
2022-07-26T01:47:58.790Z,77.39
2022-07-26T01:50:25.764Z,77.71
2022-07-26T01:52:52.843Z,78.08
2022-07-26T01:55:19.913Z,78.38
2022-07-26T01:57:46.841Z,79.05
2022-07-26T02:00:14.342Z,79.50
2022-07-26T02:02:41.403Z,80.01
2022-07-26T02:05:09.474Z,80.86
2022-07-26T02:07:44.470Z,81.35
2022-07-26T02:10:13.512Z,81.70
2022-07-26T02:12:42.279Z,81.62
2022-07-26T02:15:12.532Z,82.02
2022-07-26T02:17:39.465Z,81.59
2022-07-26T02:20:07.412Z,81.42
2022-07-26T02:22:35.060Z,81.37
2022-07-26T02:25:05.302Z,81.11
2022-07-26T02:27:33.029Z,80.84
2022-07-26T02:30:00.166Z,80.52
2022-07-26T02:32:27.110Z,80.46
2022-07-26T02:34:54.050Z,80.17
2022-07-26T02:37:20.974Z,80.13
2022-07-26T02:39:47.895Z,80.17
2022-07-26T02:42:14.976Z,80.24
2022-07-26T02:44:41.907Z,79.68
2022-07-26T02:47:08.819Z,79.38
2022-07-26T02:49:39.623Z,79.65
2022-07-26T02:52:06.702Z,79.77
2022-07-26T03:12:56.753Z,84.51
2022-07-26T03:15:23.728Z,84.17
2022-07-26T03:17:50.810Z,83.49
2022-07-26T03:20:17.790Z,83.28
2022-07-26T03:22:44.729Z,82.95
2022-07-26T03:25:11.757Z,83.21
2022-07-26T03:27:38.707Z,83.06
2022-07-26T03:30:06.882Z,82.73
2022-07-26T03:32:33.871Z,82.72
2022-07-26T03:35:00.783Z,82.58
2022-07-26T03:37:27.762Z,82.58
2022-07-26T03:40:13.741Z,82.47
2022-07-26T03:42:40.623Z,82.02
2022-07-26T03:45:09.485Z,81.76
2022-07-26T03:47:37.407Z,81.86
2022-07-26T03:50:08.363Z,81.56
2022-07-26T03:52:35.622Z,80.85
2022-07-26T03:55:22.560Z,80.50
2022-07-26T03:57:49.581Z,78.96
2022-07-26T04:00:16.584Z,78.41
2022-07-26T04:02:43.660Z,77.14
2022-07-26T04:05:11.431Z,75.66
2022-07-26T04:07:52.607Z,74.51
2022-07-26T04:10:22.390Z,73.07
2022-07-26T04:12:52.099Z,72.46
2022-07-26T04:15:21.105Z,70.47
2022-07-26T04:17:48.591Z,68.57
2022-07-26T04:20:16.086Z,67.23
2022-07-26T04:22:43.102Z,67.03
2022-07-26T04:25:10.367Z,67.39
2022-07-26T04:27:37.781Z,66.45
2022-07-26T04:30:10.960Z,66.75
2022-07-26T04:32:41.621Z,65.06
2022-07-26T04:35:09.091Z,63.38
2022-07-26T04:37:41.422Z,62.69
2022-07-26T04:40:09.212Z,62.42
2022-07-26T04:42:36.855Z,62.42
2022-07-26T04:45:08.334Z,62.52
2022-07-26T04:47:36.592Z,61.28
2022-07-26T04:50:04.590Z,60.15
2022-07-26T04:52:31.542Z,59.19
2022-07-26T04:54:59.654Z,57.48
2022-07-26T04:57:26.635Z,57.19
2022-07-26T05:00:10.123Z,55.47
2022-07-26T05:02:41.196Z,55.22
2022-07-26T05:05:09.193Z,55.28
2022-07-26T05:07:47.844Z,55.01
2022-07-26T05:10:17.602Z,54.96
2022-07-26T05:12:46.799Z,53.76
2022-07-26T05:15:14.746Z,54.39
2022-07-26T05:17:43.478Z,53.15
2022-07-26T05:20:14.937Z,56.80
2022-07-26T05:22:42.560Z,60.29
2022-07-26T05:25:09.950Z,59.92
2022-07-26T05:27:37.284Z,59.68
2022-07-26T05:30:04.556Z,58.50
2022-07-26T05:32:31.455Z,58.75
2022-07-26T05:34:58.440Z,57.64
2022-07-26T05:37:25.550Z,57.72
2022-07-26T05:39:52.437Z,58.23
2022-07-26T05:42:19.379Z,57.91
2022-07-26T05:44:46.243Z,56.59
2022-07-26T05:47:13.374Z,55.92
2022-07-26T05:49:40.881Z,56.74
2022-07-26T05:52:11.165Z,55.79
2022-07-26T05:54:38.191Z,55.41
2022-07-26T05:57:05.159Z,55.00
2022-07-26T05:59:32.195Z,55.76
2022-07-26T06:01:59.504Z,55.20
2022-07-26T06:04:27.310Z,53.87
2022-07-26T06:06:55.235Z,52.67
2022-07-26T06:09:24.393Z,51.76
2022-07-26T06:11:51.731Z,50.98
2022-07-26T06:14:19.917Z,50.84
2022-07-26T06:16:48.238Z,51.18
2022-07-26T06:19:15.645Z,51.31
2022-07-26T06:21:42.920Z,52.49
2022-07-26T06:24:10.617Z,50.90
2022-07-26T06:26:37.914Z,50.30
2022-07-26T06:29:04.886Z,50.47
2022-07-26T06:31:31.995Z,50.22
2022-07-26T06:33:59.112Z,48.64
2022-07-26T06:36:30.244Z,48.07
2022-07-26T06:38:57.946Z,46.52
2022-07-26T06:41:25.027Z,47.34
2022-07-26T06:43:52.020Z,47.51
2022-07-26T06:46:21.207Z,46.28
2022-07-26T06:48:52.635Z,46.54
2022-07-26T06:51:20.257Z,45.83
2022-07-26T06:53:47.208Z,43.52
2022-07-26T06:56:15.167Z,44.15
2022-07-26T06:58:42.854Z,43.26
2022-07-26T07:01:09.986Z,43.67
2022-07-26T07:03:37.599Z,41.25
2022-07-26T07:06:04.779Z,41.68
2022-07-26T07:08:31.871Z,41.55
2022-07-26T07:10:59.043Z,40.09
2022-07-26T07:13:26.127Z,39.23
2022-07-26T07:15:53.742Z,40.54
2022-07-26T07:18:21.679Z,39.32
2022-07-26T07:20:48.754Z,38.07
2022-07-26T07:23:15.774Z,39.03
2022-07-26T07:25:44.551Z,38.34
2022-07-26T07:28:11.967Z,37.34
2022-07-26T07:30:38.910Z,37.32
2022-07-26T07:33:09.566Z,37.38
2022-07-26T07:35:50.512Z,36.58
2022-07-26T07:38:17.661Z,38.08
2022-07-26T07:40:44.686Z,40.23
2022-07-26T07:43:11.740Z,40.90
2022-07-26T07:45:38.759Z,43.12
2022-07-26T07:48:06.287Z,43.32
2022-07-26T07:50:33.429Z,43.60
2022-07-26T07:53:01.970Z,42.81
2022-07-26T07:55:41.288Z,42.89
2022-07-26T07:58:11.346Z,44.43
2022-07-26T08:00:38.889Z,46.04
2022-07-26T08:03:05.991Z,46.30
2022-07-26T08:05:32.999Z,44.94
2022-07-26T08:08:00.087Z,43.71
2022-07-26T08:10:27.536Z,45.37
2022-07-26T08:12:54.439Z,47.11
2022-07-26T08:15:23.542Z,49.61
2022-07-26T08:17:54.636Z,48.99
2022-07-26T08:20:22.940Z,48.53
2022-07-26T08:22:52.495Z,48.55
2022-07-26T08:25:19.989Z,46.20
2022-07-26T08:28:02.636Z,47.20
2022-07-26T08:30:31.192Z,44.94
2022-07-26T08:32:58.352Z,50.03
2022-07-26T08:35:25.388Z,50.64
2022-07-26T08:37:52.463Z,49.74
2022-07-26T08:40:19.450Z,50.23
2022-07-26T08:42:52.633Z,51.64
2022-07-26T08:45:28.359Z,49.60
2022-07-26T08:48:16.612Z,48.65
2022-07-26T08:50:43.077Z,50.74
2022-07-26T08:53:12.161Z,51.44
2022-07-26T08:58:26.467Z,49.34
2022-07-26T09:01:14.134Z,51.80
2022-07-26T09:03:42.759Z,52.07
2022-07-26T09:06:16.625Z,52.33
2022-07-26T09:08:44.703Z,49.89
2022-07-26T09:11:23.692Z,48.53
2022-07-26T09:13:59.326Z,50.24
2022-07-26T09:16:27.289Z,50.91
2022-07-26T09:18:55.152Z,52.90
2022-07-26T09:21:28.266Z,52.95
2022-07-26T09:23:55.691Z,51.80
2022-07-26T09:26:26.125Z,49.86
2022-07-26T09:29:08.906Z,48.72
2022-07-26T09:31:37.605Z,46.83
2022-07-26T09:34:06.146Z,47.37
2022-07-26T09:36:33.820Z,46.78
2022-07-26T09:39:03.310Z,49.09
2022-07-26T09:41:36.218Z,49.46
2022-07-26T09:44:07.084Z,50.67
2022-07-26T09:46:35.837Z,51.01
2022-07-26T09:49:19.861Z,51.62
2022-07-26T09:51:49.400Z,51.20
2022-07-26T09:54:33.713Z,49.55
2022-07-26T09:57:00.900Z,48.96
2022-07-26T09:59:29.331Z,48.71
2022-07-26T10:01:57.939Z,49.75
2022-07-26T10:04:25.515Z,49.76
2022-07-26T10:06:52.923Z,51.22
2022-07-26T10:09:22.997Z,50.80
2022-07-26T10:12:03.472Z,51.88
2022-07-26T10:14:33.249Z,52.85
2022-07-26T10:17:01.950Z,52.45
2022-07-26T10:19:47.534Z,53.54
2022-07-26T10:22:32.170Z,50.39
2022-07-26T10:25:19.226Z,50.92
2022-07-26T10:27:51.436Z,50.76
2022-07-26T10:30:18.410Z,51.35
2022-07-26T10:32:51.457Z,51.86
2022-07-26T10:35:30.949Z,52.47
2022-07-26T10:38:06.796Z,53.52
2022-07-26T10:40:34.603Z,55.71
2022-07-26T10:46:31.033Z,54.53
2022-07-26T10:49:07.621Z,55.42
2022-07-26T10:51:39.760Z,57.63
2022-07-26T10:54:12.757Z,58.67
2022-07-26T10:56:40.764Z,58.22
2022-07-26T10:59:07.902Z,57.36
2022-07-26T11:01:36.172Z,55.99
2022-07-26T11:04:03.726Z,53.40
2022-07-26T11:06:30.651Z,52.67
2022-07-26T11:08:58.000Z,52.38
2022-07-26T11:11:32.781Z,51.28
2022-07-26T11:14:11.714Z,50.31
2022-07-26T11:16:53.044Z,50.61
2022-07-26T11:19:23.452Z,49.03
2022-07-26T11:22:01.479Z,50.15
2022-07-26T11:24:29.262Z,50.56
2022-07-26T11:26:57.191Z,51.80
2022-07-26T11:29:40.687Z,52.15
2022-07-26T11:32:18.726Z,56.80
2022-07-26T11:34:46.950Z,58.53
2022-07-26T11:37:14.476Z,58.78
2022-07-26T11:39:41.386Z,59.65
2022-07-26T11:42:10.080Z,59.20
2022-07-26T11:44:37.239Z,58.79
2022-07-26T11:47:20.305Z,58.92
2022-07-26T11:50:00.287Z,58.65
2022-07-26T11:52:35.632Z,59.31
2022-07-26T11:55:02.595Z,59.86
2022-07-26T11:57:31.515Z,58.25
2022-07-26T12:00:00.382Z,59.07
2022-07-26T12:02:28.594Z,59.01
2022-07-26T12:05:16.157Z,59.45
2022-07-26T12:07:57.565Z,59.36
2022-07-26T12:10:24.935Z,58.57
2022-07-26T12:13:16.214Z,57.08
2022-07-26T12:15:53.848Z,59.63
2022-07-26T12:18:32.860Z,59.63
2022-07-26T12:21:05.048Z,59.68
2022-07-26T12:23:46.350Z,59.45
2022-07-26T12:26:27.019Z,59.52
2022-07-26T12:28:54.937Z,59.49
2022-07-26T12:31:28.221Z,60.07
2022-07-26T12:33:55.636Z,58.67
2022-07-26T12:36:27.771Z,58.12
2022-07-26T12:38:57.979Z,56.70
2022-07-26T12:41:39.490Z,56.70
2022-07-26T12:44:11.561Z,56.08
2022-07-26T12:46:39.349Z,58.02
2022-07-26T12:49:06.434Z,57.77
2022-07-26T12:51:34.171Z,57.59
2022-07-26T12:54:01.100Z,57.57
2022-07-26T12:56:28.015Z,57.76
2022-07-26T12:59:01.049Z,57.04
2022-07-26T13:01:29.644Z,57.25
2022-07-26T13:03:56.702Z,56.71
2022-07-26T13:06:23.703Z,57.11
2022-07-26T13:08:50.715Z,59.15
2022-07-26T13:11:17.716Z,59.72
2022-07-26T13:13:44.740Z,60.21
2022-07-26T13:16:12.426Z,60.85
2022-07-26T13:18:39.686Z,60.28
2022-07-26T13:21:06.788Z,61.01
2022-07-26T13:23:35.654Z,61.82
2022-07-26T13:26:04.261Z,63.01
2022-07-26T13:28:34.855Z,63.15
2022-07-26T13:31:02.344Z,62.05
2022-07-26T13:33:29.334Z,60.04
2022-07-26T13:35:56.748Z,61.38
2022-07-26T13:38:23.766Z,61.64
2022-07-26T13:40:50.736Z,61.61
2022-07-26T13:43:17.650Z,61.00
2022-07-26T13:45:44.552Z,59.94
2022-07-26T13:48:11.502Z,60.04
2022-07-26T13:50:38.446Z,60.37
2022-07-26T13:53:05.347Z,61.24
2022-07-26T13:55:32.390Z,63.85
2022-07-26T13:57:59.266Z,62.59
2022-07-26T14:00:30.051Z,63.10
2022-07-26T14:02:58.214Z,63.66
2022-07-26T14:05:25.451Z,63.91
2022-07-26T14:07:53.176Z,64.27
2022-07-26T14:10:21.973Z,64.39
2022-07-26T14:12:49.280Z,64.31
2022-07-26T14:15:21.432Z,64.53
2022-07-26T14:17:49.564Z,64.18
2022-07-26T14:20:17.399Z,63.78
2022-07-26T14:22:44.826Z,64.44
2022-07-26T14:25:12.220Z,63.86
2022-07-26T14:27:39.404Z,64.85
2022-07-26T14:30:06.897Z,63.13
2022-07-26T14:32:34.029Z,64.13
2022-07-26T14:35:01.047Z,64.85
2022-07-26T14:37:44.997Z,65.51
2022-07-26T14:40:17.155Z,66.15
2022-07-26T14:42:46.099Z,64.72
2022-07-26T14:45:13.704Z,65.07
2022-07-26T14:47:41.091Z,64.59
2022-07-26T14:50:10.055Z,65.21
2022-07-26T14:52:41.751Z,65.80
2022-07-26T14:55:09.358Z,66.51
2022-07-26T14:57:39.500Z,66.74
2022-07-26T15:15:02.026Z,68.61
2022-07-26T15:17:29.011Z,68.01
2022-07-26T15:19:55.996Z,68.52
2022-07-26T15:22:22.920Z,67.43
2022-07-26T15:24:49.991Z,66.77
2022-07-26T15:27:16.928Z,66.70
2022-07-26T15:29:44.706Z,67.25
2022-07-26T15:32:11.710Z,66.34
2022-07-26T15:34:38.764Z,67.28
2022-07-26T15:37:05.767Z,67.35
2022-07-26T15:39:32.827Z,67.21
2022-07-26T15:42:05.442Z,66.50
2022-07-26T15:44:34.766Z,66.83
2022-07-26T15:47:01.871Z,66.16
2022-07-26T15:49:30.872Z,66.45
2022-07-26T15:51:58.014Z,66.86
2022-07-26T15:54:25.085Z,65.91
2022-07-26T15:56:51.998Z,64.54
2022-07-26T15:59:18.904Z,64.71
2022-07-26T16:01:45.776Z,64.76
2022-07-26T16:04:13.299Z,63.50
2022-07-26T16:06:40.673Z,64.56
2022-07-26T16:09:22.921Z,64.78
2022-07-26T16:11:50.330Z,64.37
2022-07-26T16:14:18.030Z,63.82
2022-07-26T16:16:45.584Z,64.10
2022-07-26T16:19:13.256Z,64.54
2022-07-26T16:21:41.010Z,64.99
2022-07-26T16:24:08.354Z,64.71
2022-07-26T16:26:36.136Z,65.24
2022-07-26T16:29:04.139Z,64.94
2022-07-26T16:31:31.456Z,65.14
2022-07-26T16:33:58.420Z,65.95
2022-07-26T16:36:25.842Z,64.55
2022-07-26T16:38:52.756Z,65.29
2022-07-26T16:41:19.872Z,65.67
2022-07-26T16:43:46.997Z,67.41
2022-07-26T16:46:14.227Z,69.17
2022-07-26T16:48:41.228Z,69.35
2022-07-26T16:51:08.353Z,70.47
2022-07-26T16:53:35.463Z,71.35
2022-07-26T16:56:02.451Z,72.30
2022-07-26T16:58:29.461Z,71.43
2022-07-26T17:00:56.430Z,72.26
2022-07-26T17:03:23.917Z,71.57
2022-07-26T17:05:51.326Z,70.98
2022-07-26T17:08:18.397Z,71.24
2022-07-26T17:10:45.586Z,71.43
2022-07-26T17:13:12.707Z,71.94
2022-07-26T17:15:39.613Z,71.68
2022-07-26T17:18:06.528Z,72.01
2022-07-26T17:20:33.496Z,72.40
2022-07-26T17:23:00.514Z,72.33
2022-07-26T17:25:27.627Z,72.33
2022-07-26T17:27:54.635Z,72.52
2022-07-26T17:30:21.617Z,72.21
2022-07-26T17:32:48.643Z,72.59
2022-07-26T17:35:15.670Z,72.36
2022-07-26T17:37:42.651Z,73.31
2022-07-26T17:40:10.398Z,73.09
2022-07-26T17:42:37.926Z,73.32
2022-07-26T17:45:06.668Z,73.58
2022-07-26T17:47:33.694Z,73.25
2022-07-26T17:52:52.693Z,74.33
2022-07-26T17:55:20.209Z,74.14
2022-07-26T17:57:49.575Z,74.83
2022-07-26T18:00:21.975Z,74.40
2022-07-26T18:02:49.308Z,75.19
2022-07-26T18:05:16.851Z,75.65
2022-07-26T18:07:43.883Z,75.44
2022-07-26T18:10:11.612Z,74.54
2022-07-26T18:12:38.808Z,75.52
2022-07-26T18:15:07.633Z,74.93
2022-07-26T18:17:34.866Z,73.76
2022-07-26T18:20:01.852Z,73.75
2022-07-26T18:22:28.812Z,74.07
2022-07-26T18:24:55.770Z,73.38
2022-07-26T18:27:23.623Z,74.31
2022-07-26T18:29:50.554Z,73.47
2022-07-26T18:32:19.332Z,73.37
2022-07-26T18:34:52.088Z,72.24
2022-07-26T18:37:20.629Z,71.47
2022-07-26T18:39:53.973Z,71.63
2022-07-26T18:42:24.121Z,71.76
2022-07-26T18:44:51.142Z,70.49
2022-07-26T18:47:18.254Z,69.01
2022-07-26T18:49:45.236Z,67.99
2022-07-26T18:52:12.420Z,68.28
2022-07-26T18:54:40.506Z,67.15
2022-07-26T18:57:07.509Z,67.40
2022-07-26T18:59:34.566Z,66.99
2022-07-26T19:02:01.657Z,65.97
2022-07-26T19:04:28.753Z,66.16
2022-07-26T19:06:56.062Z,66.87
2022-07-26T19:09:23.185Z,65.57
2022-07-26T19:11:50.239Z,67.18
2022-07-26T19:14:17.580Z,67.53
2022-07-26T19:16:44.612Z,67.68
2022-07-26T19:19:11.970Z,67.46
2022-07-26T19:21:40.949Z,66.22
2022-07-26T19:24:07.933Z,65.53
2022-07-26T19:26:35.901Z,65.44
2022-07-26T19:29:02.841Z,64.00
2022-07-26T19:31:29.892Z,64.17
2022-07-26T19:33:56.852Z,66.05
2022-07-26T19:36:26.469Z,66.31
2022-07-26T19:38:56.728Z,66.22
2022-07-26T19:41:23.983Z,66.59
2022-07-26T19:43:50.966Z,66.47
2022-07-26T19:46:18.003Z,65.98
2022-07-26T19:48:45.311Z,65.93
2022-07-26T19:51:12.427Z,65.31
2022-07-26T19:53:39.519Z,66.05
2022-07-26T19:56:07.957Z,66.55
2022-07-26T19:58:35.103Z,68.17
2022-07-26T20:01:02.418Z,68.88
2022-07-26T20:03:29.431Z,69.92
2022-07-26T20:05:57.843Z,71.06
2022-07-26T20:08:25.312Z,71.35
2022-07-26T20:10:52.598Z,71.96
2022-07-26T20:13:19.621Z,71.91
2022-07-26T20:15:49.322Z,72.13
2022-07-26T20:18:19.560Z,72.51
2022-07-26T20:20:46.591Z,72.99
2022-07-26T20:23:13.636Z,73.49
2022-07-26T20:25:40.728Z,73.42
2022-07-26T20:28:07.718Z,73.56
2022-07-26T20:30:34.794Z,73.16
2022-07-26T20:33:01.854Z,72.81
2022-07-26T20:35:29.227Z,72.85
2022-07-26T20:37:56.173Z,68.67
2022-07-26T20:40:23.466Z,71.15
2022-07-26T20:42:51.691Z,70.82
2022-07-26T20:45:18.631Z,69.92
2022-07-26T20:47:45.479Z,69.31
2022-07-26T20:50:12.703Z,69.53
2022-07-26T20:52:39.979Z,68.74
2022-07-26T20:55:07.634Z,67.29
2022-07-26T20:57:35.480Z,65.90
2022-07-26T21:00:05.996Z,65.17
2022-07-26T21:02:33.011Z,65.36
2022-07-26T21:04:59.886Z,64.28
2022-07-26T21:07:55.983Z,62.77
2022-07-26T21:10:14.071Z,61.86
2022-07-26T21:12:41.536Z,62.07
2022-07-26T21:15:08.828Z,61.57
2022-07-26T21:17:35.835Z,60.71
2022-07-26T21:20:03.951Z,60.93
2022-07-26T21:22:30.937Z,61.65
2022-07-26T21:24:57.841Z,63.51
2022-07-26T21:27:24.815Z,62.17
2022-07-26T21:29:51.786Z,61.86
2022-07-26T21:32:18.655Z,61.08
2022-07-26T21:34:45.571Z,59.47
2022-07-26T21:37:12.534Z,59.85
2022-07-26T21:39:39.337Z,59.82
2022-07-26T21:42:06.182Z,60.83
2022-07-26T21:44:33.076Z,60.88
2022-07-26T21:47:00.034Z,60.76
2022-07-26T21:49:26.997Z,59.01
2022-07-26T21:51:53.996Z,58.27
2022-07-26T21:54:20.992Z,58.72
2022-07-26T21:56:47.847Z,58.97
2022-07-26T21:59:15.226Z,58.75
2022-07-26T22:01:42.841Z,57.76
2022-07-26T22:04:10.337Z,58.48
2022-07-26T22:06:37.693Z,58.66
2022-07-26T22:09:05.335Z,58.67
2022-07-26T22:11:32.377Z,58.71
2022-07-26T22:13:59.242Z,59.33
2022-07-26T22:16:26.249Z,59.25
2022-07-26T22:18:53.083Z,59.03
2022-07-26T22:21:19.938Z,59.33
2022-07-26T22:23:46.973Z,59.55
2022-07-26T22:26:14.271Z,59.17
2022-07-26T22:28:41.222Z,58.77
2022-07-26T22:31:08.119Z,58.92
2022-07-26T22:33:35.066Z,58.58
2022-07-26T22:36:01.920Z,58.40
2022-07-26T22:38:30.454Z,57.80
2022-07-26T22:40:57.394Z,57.65
2022-07-26T22:43:24.352Z,57.68
2022-07-26T22:45:51.519Z,56.90
2022-07-26T22:48:18.510Z,56.65
2022-07-26T22:50:45.406Z,57.10
2022-07-26T22:53:12.288Z,55.87
2022-07-26T22:55:39.395Z,56.20
2022-07-26T22:58:06.260Z,56.13
2022-07-26T23:00:33.237Z,55.50
2022-07-26T23:08:43.903Z,54.66
2022-07-26T23:11:00.712Z,52.93
2022-07-26T23:13:27.719Z,52.94
2022-07-26T23:16:00.320Z,53.63
2022-07-26T23:18:28.342Z,53.76
2022-07-26T23:20:55.179Z,53.28
2022-07-26T23:23:22.173Z,52.77
2022-07-26T23:25:51.043Z,52.78
2022-07-26T23:28:24.788Z,53.26
2022-07-26T23:31:06.721Z,53.25
2022-07-26T23:33:52.366Z,53.96
2022-07-26T23:36:24.515Z,53.17
2022-07-26T23:38:51.899Z,52.76
2022-07-26T23:41:19.427Z,54.02
2022-07-26T23:43:46.438Z,53.96
2022-07-26T23:46:13.436Z,53.33
2022-07-26T23:48:40.530Z,52.81
2022-07-26T23:51:07.811Z,54.30
2022-07-26T23:53:34.950Z,53.65
2022-07-26T23:56:01.995Z,53.86
2022-07-26T23:58:28.968Z,53.32
